createdAt,value
2022-11-15T00:00:52.456Z,30.95
2022-11-15T00:03:21.946Z,35.38
2022-11-15T00:05:49.131Z,27.52
2022-11-15T00:08:16.105Z,32.30
2022-11-15T00:10:43.484Z,30.95
2022-11-15T00:13:12.714Z,29.27
2022-11-15T00:15:40.789Z,30.75
2022-11-15T00:18:13.337Z,31.63
2022-11-15T00:20:40.441Z,28.30
2022-11-15T00:23:07.457Z,33.70
2022-11-15T00:28:01.702Z,30.73
2022-11-15T00:30:29.058Z,31.17
2022-11-15T00:32:56.253Z,31.50
2022-11-15T00:35:23.274Z,35.58
2022-11-15T00:40:17.004Z,28.80
2022-11-15T00:42:43.766Z,29.25
2022-11-15T00:45:11.200Z,26.58
2022-11-15T00:47:38.017Z,28.15
2022-11-15T00:50:05.670Z,27.90
2022-11-15T00:52:32.449Z,26.60
2022-11-15T00:54:59.234Z,28.58
2022-11-15T00:57:26.030Z,26.90
2022-11-15T00:59:52.842Z,26.52
2022-11-15T01:02:19.643Z,26.52
2022-11-15T01:04:46.623Z,25.17
2022-11-15T01:09:40.194Z,22.95
2022-11-15T01:12:07.006Z,24.65
2022-11-15T01:14:33.770Z,26.20
2022-11-15T01:17:00.610Z,26.80
2022-11-15T01:19:27.513Z,21.98
2022-11-15T01:21:54.341Z,23.48
2022-11-15T01:24:21.032Z,23.67
2022-11-15T01:26:47.853Z,24.38
2022-11-15T01:29:14.689Z,26.33
2022-11-15T01:31:41.549Z,25.77
2022-11-15T01:34:08.378Z,24.10
2022-11-15T01:36:35.184Z,24.15
2022-11-15T01:39:02.231Z,25.75
2022-11-15T01:44:40.960Z,24.63
2022-11-15T01:47:14.077Z,21.50
2022-11-15T01:50:04.893Z,22.48
2022-11-15T01:52:34.297Z,25.00
2022-11-15T01:55:16.766Z,21.70
2022-11-15T01:57:46.333Z,19.17
2022-11-15T02:00:13.833Z,21.48
2022-11-15T02:02:40.930Z,23.20
2022-11-15T02:05:08.244Z,23.02
2022-11-15T02:07:36.581Z,27.60
2022-11-15T02:10:09.586Z,19.83
2022-11-15T02:12:37.037Z,22.52
2022-11-15T02:15:06.060Z,21.00
2022-11-15T02:17:41.526Z,19.25
2022-11-15T02:20:31.672Z,21.67
2022-11-15T02:23:46.068Z,20.13
2022-11-15T02:26:34.142Z,19.80
2022-11-15T02:29:06.941Z,20.27
2022-11-15T02:31:52.277Z,20.50
2022-11-15T02:34:30.202Z,18.70
2022-11-15T02:37:02.881Z,17.50
2022-11-15T02:39:56.883Z,17.48
2022-11-15T02:42:48.411Z,16.35
2022-11-15T02:45:22.447Z,17.63
2022-11-15T02:47:52.938Z,15.43
2022-11-15T02:50:24.357Z,15.80
2022-11-15T02:52:51.896Z,18.67
2022-11-15T02:55:42.465Z,15.52
2022-11-15T02:58:24.031Z,15.32
2022-11-15T03:01:04.790Z,15.05
2022-11-15T03:03:56.225Z,15.82
2022-11-15T03:06:31.483Z,18.15
2022-11-15T03:09:10.337Z,16.67
2022-11-15T03:11:44.073Z,19.52
2022-11-15T03:14:25.249Z,17.83
2022-11-15T03:17:14.029Z,19.40
2022-11-15T03:19:43.688Z,19.52
2022-11-15T03:22:15.278Z,18.08
2022-11-15T03:24:44.418Z,20.30
2022-11-15T03:27:15.087Z,20.85
2022-11-15T03:29:47.590Z,18.20
2022-11-15T03:32:21.697Z,18.90
2022-11-15T03:35:02.498Z,18.75
2022-11-15T03:37:35.445Z,18.35
2022-11-15T03:40:04.268Z,19.17
2022-11-15T03:43:01.689Z,18.92
2022-11-15T03:45:40.582Z,19.35
2022-11-15T03:48:14.564Z,20.73
2022-11-15T03:50:43.423Z,19.90
2022-11-15T03:53:10.465Z,22.02
2022-11-15T03:55:37.349Z,19.13
2022-11-15T03:58:04.197Z,20.67
2022-11-15T04:00:31.106Z,19.83
2022-11-15T04:02:57.838Z,19.67
2022-11-15T04:05:25.069Z,17.70
2022-11-15T04:07:51.820Z,18.13
2022-11-15T04:12:48.502Z,15.82
2022-11-15T04:15:21.761Z,17.27
2022-11-15T04:17:50.680Z,15.77
2022-11-15T04:20:40.838Z,20.08
2022-11-15T04:23:35.823Z,17.58
2022-11-15T04:26:13.984Z,19.05
2022-11-15T04:29:00.686Z,20.38
2022-11-15T04:31:27.992Z,20.77
2022-11-15T04:33:55.353Z,21.85
2022-11-15T04:36:44.009Z,21.48
2022-11-15T04:39:10.864Z,19.88
2022-11-15T04:41:37.773Z,20.98
2022-11-15T04:44:04.542Z,24.98
2022-11-15T04:46:31.294Z,25.58
2022-11-15T04:48:59.177Z,23.17
2022-11-15T04:51:26.469Z,23.77
2022-11-15T04:56:20.604Z,18.92
2022-11-15T04:58:50.227Z,19.73
2022-11-15T05:01:17.612Z,19.23
2022-11-15T05:04:03.981Z,20.77
2022-11-15T05:06:31.049Z,23.10
2022-11-15T05:08:58.106Z,21.13
2022-11-15T05:11:25.141Z,20.65
2022-11-15T05:16:18.656Z,21.98
2022-11-15T05:18:45.601Z,25.58
2022-11-15T05:21:15.336Z,27.80
2022-11-15T05:23:42.622Z,21.38
2022-11-15T05:26:10.385Z,27.63
2022-11-15T05:28:38.117Z,22.50
2022-11-15T05:31:09.476Z,18.92
2022-11-15T05:33:38.784Z,20.83
2022-11-15T05:36:26.185Z,23.05
2022-11-15T05:38:52.933Z,21.40
2022-11-15T05:41:22.494Z,19.23
2022-11-15T05:43:50.591Z,16.48
2022-11-15T05:46:18.563Z,18.02
2022-11-15T05:48:49.868Z,18.35
2022-11-15T05:51:17.614Z,20.42
2022-11-15T05:53:45.507Z,21.05
2022-11-15T05:56:12.934Z,26.55
2022-11-15T05:58:39.647Z,22.48
2022-11-15T06:01:06.777Z,21.90
2022-11-15T06:06:00.596Z,20.52
2022-11-15T06:08:28.326Z,19.40
2022-11-15T06:10:55.120Z,20.08
2022-11-15T06:13:21.924Z,19.42
2022-11-15T06:15:48.892Z,18.15
2022-11-15T06:18:15.646Z,20.65
2022-11-15T06:20:42.492Z,22.77
2022-11-15T06:23:09.232Z,20.70
2022-11-15T06:25:35.945Z,20.52
2022-11-15T06:28:02.661Z,27.23
2022-11-15T06:30:29.458Z,30.13
2022-11-15T06:33:06.578Z,24.10
2022-11-15T06:35:35.119Z,28.60
2022-11-15T06:38:12.093Z,30.92
2022-11-15T06:40:40.226Z,28.77
2022-11-15T06:43:07.719Z,41.53
2022-11-15T06:45:34.476Z,31.23
2022-11-15T06:48:01.255Z,27.02
2022-11-15T06:50:28.055Z,29.60
2022-11-15T06:52:55.592Z,34.28
2022-11-15T06:55:22.390Z,33.08
2022-11-15T06:57:52.880Z,32.92
2022-11-15T07:00:22.207Z,36.67
2022-11-15T07:02:49.323Z,36.60
2022-11-15T07:07:43.094Z,29.65
2022-11-15T07:12:39.701Z,31.10
2022-11-15T07:15:07.151Z,30.23
2022-11-15T07:17:33.975Z,28.35
2022-11-15T07:20:00.821Z,31.77
2022-11-15T07:22:27.551Z,28.58
2022-11-15T07:24:54.832Z,26.95
2022-11-15T07:27:21.779Z,23.55
2022-11-15T07:29:50.082Z,25.20
2022-11-15T07:32:16.843Z,24.83
2022-11-15T07:34:43.634Z,27.65
2022-11-15T07:37:10.344Z,23.70
2022-11-15T07:39:37.094Z,22.88
2022-11-15T07:42:22.352Z,23.48
2022-11-15T07:44:49.174Z,21.48
2022-11-15T07:47:16.108Z,20.63
2022-11-15T07:49:42.804Z,19.10
2022-11-15T07:52:09.462Z,23.95
2022-11-15T07:54:36.255Z,24.90
2022-11-15T07:57:07.168Z,23.15
2022-11-15T07:59:35.958Z,21.75
2022-11-15T08:02:03.035Z,24.42
2022-11-15T08:04:29.868Z,26.90
2022-11-15T08:06:56.708Z,25.77
2022-11-15T08:09:23.564Z,24.42
2022-11-15T08:11:50.269Z,24.98
2022-11-15T08:14:17.020Z,24.23
2022-11-15T08:16:44.027Z,23.15
2022-11-15T08:21:38.334Z,30.02
2022-11-15T08:24:05.459Z,27.55
2022-11-15T08:26:32.215Z,25.58
2022-11-15T08:28:58.963Z,27.40
2022-11-15T08:31:25.737Z,26.13
2022-11-15T08:33:52.454Z,25.75
2022-11-15T08:36:19.313Z,27.15
2022-11-15T08:38:46.066Z,36.03
2022-11-15T08:41:20.895Z,29.08
2022-11-15T08:43:47.646Z,30.15
2022-11-15T08:46:15.443Z,30.52
2022-11-15T08:48:42.199Z,30.63
2022-11-15T08:51:08.997Z,29.75
2022-11-15T08:53:35.889Z,31.58
2022-11-15T08:56:03.316Z,33.78
2022-11-15T08:58:30.496Z,30.25
2022-11-15T09:00:57.533Z,30.38
2022-11-15T09:03:24.314Z,34.33
2022-11-15T09:05:56.694Z,29.60
2022-11-15T09:08:52.173Z,30.52
2022-11-15T09:11:11.167Z,32.13
2022-11-15T09:13:38.368Z,28.52
2022-11-15T09:16:05.447Z,28.67
2022-11-15T09:21:00.435Z,34.40
2022-11-15T09:23:29.083Z,32.00
2022-11-15T09:26:04.174Z,31.27
2022-11-15T09:28:31.977Z,30.05
2022-11-15T09:31:00.489Z,27.50
2022-11-15T09:33:28.442Z,27.48
2022-11-15T09:35:55.720Z,29.88
2022-11-15T09:38:22.556Z,26.23
2022-11-15T09:41:00.055Z,24.42
2022-11-15T09:43:43.909Z,24.23
2022-11-15T09:46:27.658Z,23.85
2022-11-15T09:49:00.168Z,24.75
2022-11-15T09:51:47.821Z,27.35
2022-11-15T09:54:51.689Z,26.08
2022-11-15T09:57:22.652Z,24.65
2022-11-15T10:00:45.843Z,23.33
2022-11-15T10:05:49.508Z,26.63
2022-11-15T10:08:29.789Z,25.75
2022-11-15T10:13:52.128Z,24.80
2022-11-15T10:16:52.819Z,24.88
2022-11-15T10:20:07.436Z,27.80
2022-11-15T10:22:37.325Z,26.10
2022-11-15T10:25:10.211Z,26.40
2022-11-15T10:27:37.431Z,23.95
2022-11-15T10:30:11.169Z,29.75
2022-11-15T10:32:37.987Z,25.73
2022-11-15T10:35:22.410Z,24.42
2022-11-15T10:37:49.711Z,31.02
2022-11-15T10:40:23.139Z,25.55
2022-11-15T10:45:33.903Z,26.98
2022-11-15T10:48:12.835Z,24.52
2022-11-15T10:50:41.125Z,25.70
2022-11-15T10:53:19.117Z,28.48
2022-11-15T10:55:49.624Z,25.42
2022-11-15T10:58:36.251Z,28.98
2022-11-15T11:01:21.317Z,25.75
2022-11-15T11:04:07.898Z,25.98
2022-11-15T11:06:56.163Z,30.40
2022-11-15T11:09:37.390Z,29.58
2022-11-15T11:12:06.801Z,28.92
2022-11-15T11:14:38.168Z,27.48
2022-11-15T11:17:13.899Z,27.35
2022-11-15T11:19:59.190Z,27.00
2022-11-15T11:22:36.167Z,24.45
2022-11-15T11:25:15.922Z,26.52
2022-11-15T11:30:30.658Z,25.95
2022-11-15T11:33:22.991Z,24.75
2022-11-15T11:38:51.365Z,22.67
2022-11-15T11:42:03.076Z,23.52
2022-11-15T11:45:12.289Z,21.15
2022-11-15T11:47:43.184Z,19.27
2022-11-15T11:50:23.949Z,19.38
2022-11-15T11:53:05.789Z,22.50
2022-11-15T11:55:54.583Z,21.90
2022-11-15T11:58:35.220Z,23.13
2022-11-15T12:01:32.579Z,23.00
2022-11-15T12:04:15.460Z,22.23
2022-11-15T12:07:04.648Z,24.70
2022-11-15T12:09:44.860Z,21.70
2022-11-15T12:12:42.290Z,22.35
2022-11-15T12:15:41.948Z,22.33
2022-11-15T12:18:13.735Z,22.70
2022-11-15T12:20:50.758Z,21.30
2022-11-15T12:23:23.487Z,26.23
2022-11-15T12:26:07.156Z,24.90
2022-11-15T12:29:04.556Z,25.42
2022-11-15T12:31:35.746Z,27.05
2022-11-15T12:34:24.902Z,22.88
2022-11-15T12:36:52.527Z,27.23
2022-11-15T12:39:19.961Z,25.80
2022-11-15T12:41:55.910Z,26.73
2022-11-15T12:44:31.599Z,28.65
2022-11-15T12:46:58.257Z,25.90
2022-11-15T12:49:24.949Z,23.55
2022-11-15T12:51:53.135Z,26.25
2022-11-15T12:54:22.669Z,25.20
2022-11-15T12:57:04.250Z,24.20
2022-11-15T12:59:54.123Z,25.98
2022-11-15T13:02:33.093Z,27.95
2022-11-15T13:05:20.805Z,25.10
2022-11-15T13:07:47.483Z,26.52
2022-11-15T13:10:14.206Z,27.75
2022-11-15T13:12:46.748Z,26.95
2022-11-15T13:15:13.526Z,24.92
2022-11-15T13:17:54.248Z,26.83
2022-11-15T13:20:39.250Z,28.73
2022-11-15T13:23:05.930Z,26.05
2022-11-15T13:25:54.756Z,27.00
2022-11-15T13:28:40.623Z,28.05
2022-11-15T13:33:46.485Z,28.45
2022-11-15T13:36:20.883Z,26.60
2022-11-15T13:39:02.413Z,30.25
2022-11-15T13:41:35.253Z,30.33
2022-11-15T13:44:04.426Z,26.38
2022-11-15T13:46:33.890Z,30.80
2022-11-15T13:49:13.619Z,29.73
2022-11-15T13:51:43.972Z,30.80
2022-11-15T13:54:13.947Z,26.88
2022-11-15T13:57:03.380Z,28.67
2022-11-15T13:59:31.602Z,24.58
2022-11-15T14:02:03.450Z,27.60
2022-11-15T14:04:34.632Z,50.15
2022-11-15T14:07:02.971Z,26.45
2022-11-15T14:09:41.344Z,30.77
2022-11-15T14:12:34.327Z,27.58
2022-11-15T14:15:20.833Z,27.70
2022-11-15T14:17:50.193Z,27.98
2022-11-15T14:20:26.122Z,27.58
2022-11-15T14:23:01.482Z,30.38
2022-11-15T14:25:30.648Z,26.10
2022-11-15T14:28:34.367Z,26.30
2022-11-15T14:31:02.061Z,25.83
2022-11-15T14:33:33.661Z,24.15
2022-11-15T14:36:06.935Z,28.63
2022-11-15T14:38:34.338Z,27.55
2022-11-15T14:41:01.332Z,24.67
2022-11-15T14:45:54.843Z,22.75
2022-11-15T14:50:48.361Z,23.42
2022-11-15T14:53:17.319Z,20.67
2022-11-15T14:55:44.547Z,20.67
2022-11-15T14:58:11.609Z,19.73
2022-11-15T15:00:41.006Z,21.25
2022-11-15T15:03:08.786Z,19.13
2022-11-15T15:05:36.672Z,19.88
2022-11-15T15:08:04.544Z,19.95
2022-11-15T15:10:42.440Z,22.13
2022-11-15T15:13:21.151Z,21.60
2022-11-15T15:15:49.231Z,19.63
2022-11-15T15:18:16.565Z,19.75
2022-11-15T15:20:46.444Z,21.42
2022-11-15T15:23:21.404Z,20.75
2022-11-15T15:25:50.038Z,20.88
2022-11-15T15:28:17.273Z,19.35
2022-11-15T15:30:44.649Z,20.70
2022-11-15T15:33:11.538Z,22.00
2022-11-15T15:38:05.472Z,21.88
2022-11-15T15:40:34.212Z,19.52
2022-11-15T15:43:01.264Z,24.45
2022-11-15T15:45:29.235Z,20.67
2022-11-15T15:47:56.325Z,21.42
2022-11-15T15:50:28.610Z,22.88
2022-11-15T15:53:00.642Z,21.55
2022-11-15T15:55:28.137Z,21.33
2022-11-15T15:57:55.314Z,22.42
2022-11-15T16:00:24.589Z,20.52
2022-11-15T16:02:52.105Z,21.80
2022-11-15T16:05:19.200Z,24.38
2022-11-15T16:07:47.353Z,20.20
2022-11-15T16:10:26.078Z,21.75
2022-11-15T16:12:54.247Z,22.63
2022-11-15T16:15:22.129Z,24.52
2022-11-15T16:17:53.030Z,21.48
2022-11-15T16:20:43.624Z,22.85
2022-11-15T16:23:12.166Z,25.02
2022-11-15T16:25:54.125Z,21.20
2022-11-15T16:28:22.112Z,22.58
2022-11-15T16:30:53.914Z,22.58
2022-11-15T16:33:23.780Z,23.10
2022-11-15T16:35:50.755Z,22.05
2022-11-15T16:38:18.329Z,24.02
2022-11-15T16:40:45.557Z,21.95
2022-11-15T16:43:12.359Z,24.15
2022-11-15T16:45:39.507Z,27.00
2022-11-15T16:48:07.058Z,24.85
2022-11-15T16:50:41.027Z,23.63
2022-11-15T16:53:07.954Z,26.92
2022-11-15T16:55:34.919Z,24.13
2022-11-15T16:58:02.412Z,26.25
2022-11-15T17:00:29.324Z,27.85
2022-11-15T17:02:56.251Z,28.50
2022-11-15T17:07:56.996Z,26.27
2022-11-15T17:10:25.409Z,26.40
2022-11-15T17:12:53.229Z,27.58
2022-11-15T17:15:20.058Z,27.92
2022-11-15T17:20:19.519Z,26.45
2022-11-15T17:22:47.337Z,28.77
2022-11-15T17:25:15.007Z,37.05
2022-11-15T17:27:41.975Z,30.42
2022-11-15T17:30:10.499Z,32.45
2022-11-15T17:32:37.608Z,31.52
2022-11-15T17:35:12.019Z,28.80
2022-11-15T17:37:42.007Z,29.88
2022-11-15T17:40:09.450Z,27.27
2022-11-15T17:42:36.261Z,31.17
2022-11-15T17:47:37.564Z,31.60
2022-11-15T17:50:05.064Z,31.38
2022-11-15T17:52:31.834Z,30.73
2022-11-15T17:57:25.317Z,32.03
2022-11-15T17:59:52.220Z,33.97
2022-11-15T18:04:46.289Z,32.42
2022-11-15T18:07:14.173Z,36.90
2022-11-15T18:09:43.810Z,34.95
2022-11-15T18:12:12.184Z,35.75
2022-11-15T18:14:39.288Z,38.85
2022-11-15T18:17:06.489Z,36.70
2022-11-15T18:19:33.643Z,38.58
2022-11-15T18:22:01.619Z,35.95
2022-11-15T18:24:29.553Z,35.63
2022-11-15T18:26:57.026Z,37.80
2022-11-15T18:29:24.765Z,37.25
2022-11-15T18:31:55.497Z,35.03
2022-11-15T18:34:24.218Z,38.17
2022-11-15T18:36:52.532Z,36.97
2022-11-15T18:39:19.938Z,38.45
2022-11-15T18:41:47.555Z,38.10
2022-11-15T18:44:14.956Z,37.58
2022-11-15T18:46:42.475Z,36.55
2022-11-15T18:49:10.023Z,35.22
2022-11-15T18:51:37.982Z,36.92
2022-11-15T18:54:04.828Z,39.63
2022-11-15T18:59:01.925Z,37.72
2022-11-15T19:01:33.844Z,36.25
2022-11-15T19:04:11.797Z,34.08
2022-11-15T19:06:43.636Z,35.28
2022-11-15T19:09:15.209Z,37.47
2022-11-15T19:11:43.690Z,36.25
2022-11-15T19:14:12.462Z,35.15
2022-11-15T19:16:41.666Z,33.20
2022-11-15T19:19:13.191Z,36.28
2022-11-15T19:21:39.996Z,38.35
2022-11-15T19:24:07.121Z,36.60
2022-11-15T19:26:36.849Z,34.78
2022-11-15T19:29:05.085Z,34.53
2022-11-15T19:31:32.343Z,32.50
2022-11-15T19:34:01.146Z,34.03
2022-11-15T19:36:34.426Z,35.03
2022-11-15T19:41:32.112Z,32.45
2022-11-15T19:46:26.911Z,32.63
2022-11-15T19:48:54.054Z,35.50
2022-11-15T19:51:25.587Z,39.05
2022-11-15T19:53:58.060Z,32.72
2022-11-15T19:56:25.005Z,37.38
2022-11-15T20:01:28.499Z,35.17
2022-11-15T20:03:59.407Z,38.45
2022-11-15T20:06:46.398Z,37.35
2022-11-15T20:09:15.557Z,38.97
2022-11-15T20:11:42.748Z,39.65
2022-11-15T20:14:11.568Z,37.88
2022-11-15T20:16:38.693Z,41.42
2022-11-15T20:19:05.485Z,38.78
2022-11-15T20:21:32.240Z,34.75
2022-11-15T20:23:59.022Z,35.13
2022-11-15T20:26:25.980Z,38.80
2022-11-15T20:31:19.563Z,34.75
2022-11-15T20:33:46.462Z,31.83
2022-11-15T20:36:15.798Z,33.85
2022-11-15T20:38:43.647Z,34.22
2022-11-15T20:41:13.936Z,34.15
2022-11-15T20:43:44.316Z,31.90
2022-11-15T20:46:12.483Z,32.20
2022-11-15T20:48:39.734Z,30.73
2022-11-15T20:51:15.422Z,32.25
2022-11-15T20:53:43.529Z,28.98
2022-11-15T20:56:16.869Z,28.50
2022-11-15T20:58:45.687Z,28.38
2022-11-15T21:01:15.070Z,28.23
2022-11-15T21:03:42.285Z,27.05
2022-11-15T21:06:09.551Z,25.48
2022-11-15T21:08:54.852Z,24.83
2022-11-15T21:11:40.318Z,24.98
2022-11-15T21:14:09.469Z,21.55
2022-11-15T21:16:37.158Z,22.05
2022-11-15T21:19:03.958Z,22.92
2022-11-15T21:23:57.764Z,21.45
2022-11-15T21:26:26.818Z,23.05
2022-11-15T21:31:20.379Z,20.55
2022-11-15T21:33:47.059Z,21.92
2022-11-15T21:36:14.075Z,19.73
2022-11-15T21:38:41.003Z,20.05
2022-11-15T21:43:34.508Z,20.63
2022-11-15T21:46:04.177Z,18.88
2022-11-15T21:48:32.896Z,20.55
2022-11-15T21:51:05.345Z,18.77
2022-11-15T21:53:32.291Z,20.02
2022-11-15T21:56:00.619Z,18.42
2022-11-15T21:58:27.833Z,18.65
2022-11-15T22:01:14.152Z,21.63
2022-11-15T22:03:41.491Z,20.80
2022-11-15T22:06:11.740Z,18.48
2022-11-15T22:08:41.223Z,19.98
2022-11-15T22:13:34.895Z,17.67
2022-11-15T22:18:28.867Z,18.77
2022-11-15T22:21:03.819Z,19.63
2022-11-15T22:23:32.070Z,18.33
2022-11-15T22:25:58.995Z,21.95
2022-11-15T22:30:53.991Z,20.52
2022-11-15T22:33:22.584Z,20.65
2022-11-15T22:35:49.878Z,21.67
2022-11-15T22:38:17.075Z,18.17
2022-11-15T22:40:44.035Z,19.50
2022-11-15T22:45:46.321Z,19.58
2022-11-15T22:48:13.064Z,19.35
2022-11-15T22:50:39.815Z,21.05
2022-11-15T22:53:06.518Z,20.60
2022-11-15T22:55:33.209Z,19.23
2022-11-15T22:57:59.972Z,20.38
2022-11-15T23:00:26.710Z,18.80
2022-11-15T23:05:21.499Z,18.70
2022-11-15T23:10:33.603Z,19.98
2022-11-15T23:13:16.887Z,20.10
2022-11-15T23:16:07.965Z,19.58
2022-11-15T23:18:38.840Z,20.65
2022-11-15T23:21:13.798Z,18.17
2022-11-15T23:23:40.734Z,19.73
2022-11-15T23:28:35.596Z,15.73
2022-11-15T23:31:25.590Z,17.08
2022-11-15T23:33:58.388Z,18.98
2022-11-15T23:36:29.381Z,20.10
2022-11-15T23:38:56.630Z,19.25
2022-11-15T23:41:25.066Z,20.35
2022-11-15T23:43:52.362Z,18.17
2022-11-15T23:46:19.155Z,18.48
2022-11-15T23:51:15.191Z,17.98
2022-11-15T23:53:42.392Z,19.50
2022-11-15T23:56:14.625Z,17.33
2022-11-15T23:58:42.422Z,20.67
